Time;durP1;ratioP1;P1;durP2;ratioP2;P2;SDS_P1;SDS_P2;PMS_P1;PMS_P2;Temp;Humidity;BMP_temperature;BMP_pressure;BME280_temperature;BME280_humidity;BME280_pressure;Samples;Min_cycle;Max_cycle;Signal;HPM_P1;HPM_P2
2022/12/17 13:08:06;;;;;;;38.60;22.20;;;;;;;1.90;100.00;98832.64;106376;1306;22104;-64
2022/12/17 13:10:33;;;;;;;46.90;24.40;;;;;;;1.91;100.00;98836.27;106408;1295;22240;-64
2022/12/17 13:13:24;;;;;;;120.40;73.70;;;;;;;1.93;100.00;98848.15;106378;1300;22142;-64
2022/12/17 13:15:55;;;;;;;154.70;96.40;;;;;;;1.98;100.00;98854.45;106327;1302;22244;-64
2022/12/17 13:18:42;;;;;;;99.70;59.80;;;;;;;2.01;100.00;98860.63;106074;1298;138055;-63
2022/12/17 13:21:15;;;;;;;57.00;34.60;;;;;;;2.04;100.00;98863.48;106100;1312;22156;-64
2022/12/17 13:23:42;;;;;;;33.80;22.70;;;;;;;2.05;100.00;98865.34;106003;1288;138309;-64
2022/12/17 13:26:29;;;;;;;36.70;23.50;;;;;;;2.05;100.00;98863.21;106097;1296;22143;-63
2022/12/17 13:28:56;;;;;;;37.30;22.10;;;;;;;2.09;100.00;98855.96;106061;1295;138376;-64
2022/12/17 13:32:04;;;;;;;34.70;21.80;;;;;;;2.10;100.00;98844.25;106063;1303;22107;-70
2022/12/17 13:34:43;;;;;;;40.10;25.00;;;;;;;2.11;100.00;98835.52;106013;1302;139455;-69
2022/12/17 13:37:17;;;;;;;34.50;21.40;;;;;;;2.11;100.00;98822.79;106156;1312;22135;-70
2022/12/17 13:40:11;;;;;;;27.10;17.50;;;;;;;2.11;100.00;98816.52;105890;1312;22147;-64
2022/12/17 13:42:38;;;;;;;24.40;15.30;;;;;;;2.07;100.00;98820.88;105826;1306;138498;-64
2022/12/17 13:45:05;;;;;;;74.80;40.10;;;;;;;2.03;100.00;98811.48;105902;1306;22142;-61
2022/12/17 13:47:34;;;;;;;30.90;17.60;;;;;;;2.04;100.00;98803.99;105820;1312;138538;-59
2022/12/17 13:50:02;;;;;;;26.40;16.30;;;;;;;2.04;100.00;98790.56;106140;1290;22163;-60
2022/12/17 13:52:50;;;;;;;29.40;17.40;;;;;;;2.03;100.00;98793.38;106020;1302;138806;-59
2022/12/17 13:55:18;;;;;;;;;;;;;;;2.01;100.00;98802.69;105903;1298;22365;-59
2022/12/17 13:57:45;;;;;;;;;;;;;;;1.96;100.00;98811.11;105898;1310;22356;-60
2022/12/17 14:00:23;;;;;;;29.50;17.00;;;;;;;1.92;100.00;98818.98;105951;1306;124443;-59
2022/12/17 14:02:50;;;;;;;32.50;19.20;;;;;;;1.94;100.00;98822.65;106113;1296;22729;-59
2022/12/17 14:05:32;;;;;;;24.10;16.40;;;;;;;1.97;100.00;98816.64;105935;1294;138033;-60
2022/12/17 14:08:00;;;;;;;24.20;15.70;;;;;;;2.01;100.00;98812.03;105836;1314;22146;-60
2022/12/17 14:10:27;;;;;;;26.40;16.60;;;;;;;2.03;100.00;98805.91;105888;1312;22404;-59
2022/12/17 14:13:12;;;;;;;21.60;13.50;;;;;;;2.05;100.00;98797.38;106060;1297;22330;-59
2022/12/17 14:15:47;;;;;;;31.00;19.60;;;;;;;2.05;100.00;98786.13;106081;1296;22227;-59
2022/12/17 14:18:15;;;;;;;35.70;19.70;;;;;;;2.03;100.00;98784.41;105976;1298;138425;-59
2022/12/17 14:20:42;;;;;;;29.10;18.00;;;;;;;2.03;100.00;98784.77;105833;1312;22142;-59
2022/12/17 14:23:23;;;;;;;32.10;20.00;;;;;;;1.98;100.00;98787.92;105925;1297;140151;-59
2022/12/17 14:25:49;;;;;;;36.80;23.80;;;;;;;1.91;100.00;98790.76;105865;1313;22230;-59
2022/12/17 14:28:31;;;;;;;38.10;22.00;;;;;;;1.86;100.00;98787.96;105921;1307;22782;-59
2022/12/17 14:31:20;;;;;;;48.10;26.70;;;;;;;1.79;100.00;98789.55;106508;1291;23107;-59
2022/12/17 14:34:06;;;;;;;70.70;37.20;;;;;;;1.72;100.00;98792.25;106483;1304;22165;-59
2022/12/17 14:36:38;;;;;;;69.80;36.30;;;;;;;1.66;100.00;98793.30;106573;1288;138302;-59
2022/12/17 14:39:17;;;;;;;65.30;32.90;;;;;;;1.62;100.00;98794.77;106574;1302;22950;-58
2022/12/17 14:44:29;;;;;;;54.70;25.40;;;;;;;1.56;100.00;98781.04;102275;1296;25019;-59
2022/12/17 14:47:24;;;;;;;42.50;22.80;;;;;;;1.57;100.00;98777.84;106604;1293;138466;-59
2022/12/17 14:49:58;;;;;;;41.20;22.70;;;;;;;1.61;100.00;98784.61;106679;1302;22125;-59
2022/12/17 14:52:47;;;;;;;60.30;34.50;;;;;;;1.60;100.00;98790.33;106697;1303;22136;-59
2022/12/17 14:55:25;;;;;;;74.60;46.70;;;;;;;1.60;100.00;98801.39;106740;1288;22878;-59
2022/12/17 14:57:52;;;;;;;54.00;30.00;;;;;;;1.65;100.00;98807.14;106762;1302;22328;-59
2022/12/17 15:00:20;;;;;;;45.80;27.10;;;;;;;1.71;100.00;98812.56;106377;1304;138272;-59
2022/12/17 15:02:50;;;;;;;54.90;28.60;;;;;;;1.76;100.00;98815.35;106539;1302;22163;-58
2022/12/17 15:05:17;;;;;;;67.60;39.40;;;;;;;1.80;100.00;98814.83;106433;1294;139341;-59
2022/12/17 15:07:44;;;;;;;56.70;35.80;;;;;;;1.82;100.00;98814.04;106709;1303;22155;-58
2022/12/17 15:10:12;;;;;;;62.50;32.80;;;;;;;1.84;100.00;98828.58;106715;1302;22782;-59
2022/12/17 15:12:42;;;;;;;45.30;25.80;;;;;;;1.87;100.00;98834.20;106626;1303;138348;-58
2022/12/17 15:15:13;;;;;;;43.30;24.10;;;;;;;1.90;100.00;98831.60;106713;1302;22213;-60
2022/12/17 15:17:40;;;;;;;46.60;26.00;;;;;;;1.92;100.00;98825.27;106550;1288;138826;-58
2022/12/17 15:20:08;;;;;;;;;;;;;;;1.91;100.00;98827.05;106715;1303;22519;-59
2022/12/17 15:22:36;;;;;;;37.90;20.40;;;;;;;1.94;100.00;98838.89;106669;1302;124892;-58
2022/12/17 15:25:03;;;;;;;40.30;24.90;;;;;;;1.96;100.00;98844.00;106568;1302;22222;-59
2022/12/17 15:27:30;;;;;;;54.60;35.00;;;;;;;1.95;100.00;98836.08;106697;1296;22271;-59
2022/12/17 15:29:58;;;;;;;32.80;22.30;;;;;;;1.95;100.00;98840.13;106604;1303;138163;-59
2022/12/17 15:32:25;;;;;;;32.70;19.60;;;;;;;1.95;100.00;98852.23;106715;1303;22302;-60
2022/12/17 15:34:51;;;;;;;51.40;28.10;;;;;;;1.96;100.00;98865.33;106640;1303;138976;-59
2022/12/17 15:37:18;;;;;;;56.90;33.10;;;;;;;1.97;100.00;98874.91;106719;1288;22303;-59
2022/12/17 15:39:51;;;;;;;50.80;30.20;;;;;;;1.97;100.00;98879.38;106738;1303;22242;-59
2022/12/17 15:45:04;;;;;;;34.90;20.60;;;;;;;1.96;100.00;98878.98;106751;1288;23352;-59
2022/12/17 15:47:30;;;;;;;41.20;19.80;;;;;;;1.95;100.00;98887.81;106588;1298;138495;-59
2022/12/17 15:49:57;;;;;;;109.80;49.70;;;;;;;1.93;100.00;98878.70;106694;1294;22246;-60
2022/12/17 15:52:24;;;;;;;;;;;;;;;1.90;100.00;98872.27;106695;1297;22364;-59
2022/12/17 15:54:50;;;;;;;35.20;17.90;;;;;;;1.85;100.00;98860.13;106595;1303;124180;-60
2022/12/17 15:57:17;;;;;;;43.70;20.90;;;;;;;1.82;100.00;98855.77;106706;1302;23312;-60
2022/12/17 15:59:44;;;;;;;46.80;23.50;;;;;;;1.81;100.00;98850.03;106567;1303;138076;-60
2022/12/17 16:02:11;;;;;;;44.10;22.40;;;;;;;1.76;100.00;98845.75;106683;1294;22180;-60
2022/12/17 16:04:38;;;;;;;21.30;13.80;;;;;;;1.70;100.00;98854.16;106521;1290;139718;-60
2022/12/17 16:07:05;;;;;;;22.40;14.50;;;;;;;1.68;100.00;98859.54;106666;1301;23614;-59
2022/12/17 16:09:31;;;;;;;19.20;12.50;;;;;;;1.65;100.00;98869.05;106697;1290;22175;-59
2022/12/17 16:11:58;;;;;;;15.80;9.30;;;;;;;1.61;100.00;98873.22;106459;1302;139325;-59
2022/12/17 16:14:25;;;;;;;9.30;6.90;;;;;;;1.62;100.00;98879.86;106682;1288;22171;-59
2022/12/17 16:16:52;;;;;;;11.50;6.30;;;;;;;1.61;100.00;98880.85;106611;1285;138302;-59
2022/12/17 16:19:18;;;;;;;11.00;6.70;;;;;;;1.58;100.00;98880.55;106668;1295;22282;-59
2022/12/17 16:21:45;;;;;;;10.80;6.30;;;;;;;1.52;100.00;98877.70;106730;1302;23053;-60
2022/12/17 16:24:12;;;;;;;12.10;5.70;;;;;;;1.55;100.00;98900.34;106575;1288;137766;-59
2022/12/17 16:26:39;;;;;;;6.40;4.80;;;;;;;1.56;100.00;98910.35;106708;1297;23180;-59
2022/12/17 16:29:06;;;;;;;8.50;5.90;;;;;;;1.56;100.00;98904.90;106565;1303;137968;-59
2022/12/17 16:31:32;;;;;;;8.70;5.80;;;;;;;1.53;100.00;98898.84;106659;1298;22295;-59
2022/12/17 16:33:59;;;;;;;;;;;;;;;1.48;100.00;98898.85;106702;1296;22349;-59
2022/12/17 16:36:26;;;;;;;7.40;5.20;;;;;;;1.44;100.00;98898.71;106587;1301;124131;-59
2022/12/17 16:38:53;;;;;;;;;;;;;;;1.44;100.00;98894.81;106715;1303;22361;-59
2022/12/17 16:41:20;;;;;;;9.30;5.60;;;;;;;1.43;100.00;98889.77;102726;1289;125047;-65
2022/12/17 16:43:47;;;;;;;7.60;5.40;;;;;;;1.40;100.00;98887.60;102392;1295;25754;-64
2022/12/17 16:46:25;;;;;;;;;;;;;;;1.37;100.00;98887.80;102245;1305;25371;-65
2022/12/17 16:48:52;;;;;;;9.60;6.00;;;;;;;1.34;100.00;98890.05;102251;1288;124166;-66
2022/12/17 16:51:19;;;;;;;10.60;6.60;;;;;;;1.29;100.00;98887.52;102323;1295;22474;-65
2022/12/17 16:53:54;;;;;;;96.50;47.30;;;;;;;1.31;100.00;98908.55;106594;1303;139002;-67
2022/12/17 16:56:22;;;;;;;;;;;;;;;1.30;100.00;98926.20;106708;1294;23468;-66
2022/12/17 16:58:49;;;;;;;19.20;11.90;;;;;;;1.31;100.00;98942.48;106598;1288;125571;-66
2022/12/17 17:01:19;;;;;;;;;;;;;;;1.33;100.00;98952.85;106595;1303;22326;-66
2022/12/17 17:03:46;;;;;;;9.70;6.90;;;;;;;1.30;100.00;98949.52;106700;1296;22179;-67
2022/12/17 17:06:13;;;;;;;11.90;6.70;;;;;;;1.28;100.00;98947.74;106591;1303;137802;-66
2022/12/17 17:08:40;;;;;;;10.10;7.20;;;;;;;1.30;100.00;98951.63;106683;1303;22299;-67
2022/12/17 17:11:11;;;;;;;9.20;6.00;;;;;;;1.29;100.00;98948.16;106612;1302;138246;-66
2022/12/17 17:13:38;;;;;;;10.10;5.50;;;;;;;1.28;100.00;98949.34;106679;1294;22120;-66
2022/12/17 17:16:05;;;;;;;8.60;5.30;;;;;;;1.27;100.00;98958.01;106700;1294;23473;-66
2022/12/17 17:18:32;;;;;;;7.50;5.30;;;;;;;1.23;100.00;98958.09;106404;1303;137930;-67
2022/12/17 17:21:11;;;;;;;;;;;;;;;1.21;100.00;98951.12;106696;1288;22379;-66
2022/12/17 17:23:39;;;;;;;9.70;5.50;;;;;;;1.19;100.00;98944.44;106652;1294;124255;-67
2022/12/17 17:26:06;;;;;;;8.30;6.00;;;;;;;1.17;100.00;98957.52;106660;1298;22274;-66
2022/12/17 17:28:33;;;;;;;8.00;5.00;;;;;;;1.14;100.00;98964.48;106672;1282;22230;-67
2022/12/17 17:31:00;;;;;;;8.20;5.20;;;;;;;1.07;100.00;98963.34;106588;1303;138275;-66
2022/12/17 17:33:28;;;;;;;7.00;5.00;;;;;;;1.05;100.00;98968.99;106744;1303;22143;-67
2022/12/17 17:36:03;;;;;;;7.30;4.70;;;;;;;1.04;100.00;98970.39;106555;1301;138291;-66
2022/12/17 17:38:32;;;;;;;6.90;4.70;;;;;;;1.05;100.00;98971.34;106710;1285;22218;-67
2022/12/17 17:40:58;;;;;;;6.40;4.60;;;;;;;1.04;100.00;98966.52;103047;1295;138135;-60
2022/12/17 17:43:25;;;;;;;5.60;3.40;;;;;;;0.95;100.00;98956.33;102301;1289;22472;-57
2022/12/17 17:45:53;;;;;;;5.20;3.30;;;;;;;0.97;100.00;98968.70;106423;1305;23193;-60
2022/12/17 17:48:20;;;;;;;8.90;5.40;;;;;;;0.94;100.00;98966.27;106600;1306;138073;-61
2022/12/17 17:51:00;;;;;;;18.60;9.00;;;;;;;0.92;100.00;98981.24;106755;1303;22303;-59
2022/12/17 17:53:27;;;;;;;5.80;3.90;;;;;;;0.86;100.00;98989.49;106511;1304;137935;-59
2022/12/17 17:55:54;;;;;;;4.80;3.00;;;;;;;0.86;100.00;98987.90;106608;1298;22149;-60
2022/12/17 17:58:20;;;;;;;;;;;;;;;0.83;100.00;98993.39;106613;1290;22370;-58
2022/12/17 18:00:47;;;;;;;4.20;3.10;;;;;;;0.80;100.00;98994.80;106574;1296;124471;-58
2022/12/17 18:03:14;;;;;;;4.50;3.00;;;;;;;0.81;100.00;99013.36;106713;1303;22937;-58
2022/12/17 18:05:41;;;;;;;;;;;;;;;0.81;100.00;99024.98;106649;1288;137885;-58
2022/12/17 18:08:08;;;;;;;4.30;2.70;;;;;;;0.82;100.00;99025.53;106701;1298;22298;-58
2022/12/17 18:10:34;;;;;;;;;;;;;;;0.75;100.00;99023.59;106768;1288;22444;-58
2022/12/17 18:15:48;;;;;;;4.40;2.90;;;;;;;0.80;100.00;99053.66;106589;1303;22699;-58
2022/12/17 18:18:15;;;;;;;4.50;2.40;;;;;;;0.80;100.00;99054.98;106526;1303;138803;-59
2022/12/17 18:20:42;;;;;;;3.30;2.90;;;;;;;0.78;100.00;99050.20;106595;1290;22228;-58
2022/12/17 18:23:09;;;;;;;5.90;4.80;;;;;;;0.76;100.00;99047.59;106458;1303;138520;-59
2022/12/17 18:25:35;;;;;;;4.20;3.40;;;;;;;0.72;100.00;99045.62;106722;1303;23289;-59
2022/12/17 18:28:03;;;;;;;4.80;2.60;;;;;;;0.69;100.00;99059.07;106602;1303;22138;-59
2022/12/17 18:30:30;;;;;;;;;;;;;;;0.69;100.00;99070.08;106602;1303;139466;-59
2022/12/17 18:32:57;;;;;;;3.00;2.10;;;;;;;0.69;100.00;99075.29;106723;1303;22135;-59
2022/12/17 18:35:23;;;;;;;5.10;2.90;;;;;;;0.69;100.00;99083.53;106601;1303;137973;-59
2022/12/17 18:37:50;;;;;;;2.50;1.70;;;;;;;0.71;100.00;99097.48;106716;1299;22204;-59
2022/12/17 18:40:17;;;;;;;4.90;2.90;;;;;;;0.71;100.00;99098.67;104638;1299;25339;-57
2022/12/17 18:45:29;;;;;;;3.20;2.00;;;;;;;0.67;100.00;99107.37;102238;1288;26118;-56
2022/12/17 18:47:56;;;;;;;1.60;1.20;;;;;;;0.66;100.00;99118.33;102179;1299;139245;-57
2022/12/17 18:50:22;;;;;;;2.20;1.80;;;;;;;0.64;100.00;99125.66;102240;1289;22504;-58
2022/12/17 18:52:49;;;;;;;1.60;1.50;;;;;;;0.66;100.00;99136.86;102160;1289;138931;-59
2022/12/17 18:55:16;;;;;;;29.40;15.60;;;;;;;0.65;100.00;99131.98;102347;1294;22486;-59
2022/12/17 18:57:43;;;;;;;6.20;3.00;;;;;;;0.62;100.00;99134.73;102350;1294;22857;-58
2022/12/17 19:00:10;;;;;;;11.90;5.70;;;;;;;0.61;100.00;99133.77;102247;1312;138779;-58
2022/12/17 19:02:37;;;;;;;6.20;3.60;;;;;;;0.60;100.00;99139.39;102361;1292;22508;-59
2022/12/17 19:05:04;;;;;;;4.60;3.20;;;;;;;0.57;100.00;99134.10;102241;1298;138959;-58
2022/12/17 19:07:31;;;;;;;;;;;;;;;0.60;100.00;99139.47;102301;1293;24410;-58
2022/12/17 19:09:57;;;;;;;5.70;1.80;;;;;;;0.58;100.00;99143.30;102333;1288;22510;-58
2022/12/17 19:12:24;;;;;;;2.80;1.90;;;;;;;0.54;100.00;99146.19;102170;1288;138242;-59
2022/12/17 19:14:51;;;;;;;2.10;1.50;;;;;;;0.52;100.00;99147.88;102296;1295;24209;-58
2022/12/17 19:17:18;;;;;;;2.40;2.20;;;;;;;0.52;100.00;99153.98;102228;1295;140235;-58
2022/12/17 19:19:46;;;;;;;3.90;2.30;;;;;;;0.52;100.00;99165.31;102294;1294;22610;-58
2022/12/17 19:22:12;;;;;;;3.10;2.20;;;;;;;0.53;100.00;99172.79;102301;1294;24281;-58
2022/12/17 19:24:39;;;;;;;3.70;1.90;;;;;;;0.53;100.00;99183.14;102251;1294;138935;-58
2022/12/17 19:27:06;;;;;;;2.80;1.90;;;;;;;0.52;100.00;99192.83;102281;1296;24263;-58
2022/12/17 19:29:33;;;;;;;4.40;2.10;;;;;;;0.51;100.00;99192.45;102191;1311;137765;-58
2022/12/17 19:31:59;;;;;;;3.20;2.10;;;;;;;0.52;100.00;99202.39;102313;1298;24274;-58
2022/12/17 19:34:26;;;;;;;;;;;;;;;0.50;100.00;99208.65;102238;1296;24210;-57
2022/12/17 19:36:53;;;;;;;2.30;1.50;;;;;;;0.48;100.00;99208.64;102241;1294;125488;-58
2022/12/17 19:39:19;;;;;;;2.80;1.70;;;;;;;0.46;100.00;99214.11;102409;1289;22504;-57
2022/12/17 19:41:46;;;;;;;2.90;1.90;;;;;;;0.45;100.00;99225.10;102050;1313;140276;-57
2022/12/17 19:44:15;;;;;;;1.80;1.50;;;;;;;0.43;100.00;99226.73;106750;1295;22148;-58
2022/12/17 19:46:42;;;;;;;2.30;1.60;;;;;;;0.43;100.00;99230.52;106580;1306;140391;-59
2022/12/17 19:49:10;;;;;;;;;;;;;;;0.45;100.00;99244.36;106574;1303;23217;-56
2022/12/17 19:51:39;;;;;;;10.70;7.90;;;;;;;0.46;100.00;99249.85;106766;1303;22220;-55
2022/12/17 19:54:05;;;;;;;27.70;13.10;;;;;;;0.44;100.00;99249.48;106644;1303;138351;-56
2022/12/17 19:56:35;;;;;;;7.70;5.00;;;;;;;0.46;100.00;99249.60;106701;1295;22114;-59
2022/12/17 19:59:06;;;;;;;4.30;2.60;;;;;;;0.48;100.00;99252.91;106523;1296;138209;-60
2022/12/17 20:01:35;;;;;;;2.30;1.80;;;;;;;0.50;100.00;99257.71;106517;1284;22255;-59
2022/12/17 20:04:02;;;;;;;2.30;1.50;;;;;;;0.49;100.00;99264.88;106525;1288;22119;-59
2022/12/17 20:06:30;;;;;;;3.40;2.10;;;;;;;0.50;100.00;99272.52;106431;1288;139032;-59
2022/12/17 20:08:57;;;;;;;4.00;2.20;;;;;;;0.50;100.00;99279.31;106536;1305;22212;-58
2022/12/17 20:11:33;;;;;;;3.80;2.50;;;;;;;0.50;100.00;99285.14;106485;1305;137830;-58
2022/12/17 20:14:10;;;;;;;4.10;2.30;;;;;;;0.50;100.00;99293.88;106633;1293;22132;-58
2022/12/17 20:16:38;;;;;;;4.40;2.60;;;;;;;0.50;100.00;99302.65;106512;1295;138160;-58
2022/12/17 20:19:06;;;;;;;4.00;2.80;;;;;;;0.50;100.00;99304.60;106671;1282;22173;-59
2022/12/17 20:21:33;;;;;;;5.60;2.80;;;;;;;0.51;100.00;99306.79;106743;1279;22232;-58
2022/12/17 20:24:00;;;;;;;4.30;2.30;;;;;;;0.50;100.00;99306.91;106492;1296;138285;-59
2022/12/17 20:26:27;;;;;;;5.50;2.80;;;;;;;0.50;100.00;99308.27;106544;1295;22221;-58
2022/12/17 20:28:53;;;;;;;3.00;2.30;;;;;;;0.46;100.00;99313.89;106457;1284;139062;-59
2022/12/17 20:31:20;;;;;;;;;;;;;;;0.50;100.00;99329.54;106751;1295;22508;-63
2022/12/17 20:33:47;;;;;;;2.90;2.10;;;;;;;0.49;100.00;99333.20;106715;1302;22141;-59
2022/12/17 20:36:15;;;;;;;3.00;2.00;;;;;;;0.47;100.00;99331.13;106614;1299;139182;-59
2022/12/17 20:38:42;;;;;;;2.50;1.80;;;;;;;0.45;100.00;99338.04;106571;1297;22260;-59
2022/12/17 20:41:14;;;;;;;3.40;2.30;;;;;;;0.43;100.00;99348.60;102813;1294;138342;-59
2022/12/17 20:43:40;;;;;;;5.00;3.10;;;;;;;0.42;100.00;99355.77;102190;1297;23196;-59
2022/12/17 20:46:10;;;;;;;;;;;;;;;0.42;100.00;99358.65;102179;1288;23314;-59
2022/12/17 20:48:38;;;;;;;4.60;2.20;;;;;;;0.40;100.00;99362.27;102170;1299;124748;-60
2022/12/17 20:51:14;;;;;;;4.30;2.30;;;;;;;0.36;100.00;99361.50;106696;1287;22818;-59
2022/12/17 20:53:41;;;;;;;5.30;3.30;;;;;;;0.35;100.00;99363.96;106597;1303;139807;-58
2022/12/17 20:56:11;;;;;;;;;;;;;;;0.35;100.00;99362.52;106684;1298;22370;-59
2022/12/17 20:58:38;;;;;;;29.00;10.00;;;;;;;0.35;100.00;99367.14;106669;1288;127164;-58
2022/12/17 21:01:07;;;;;;;50.80;16.00;;;;;;;0.35;100.00;99370.55;106746;1303;22131;-58
2022/12/17 21:03:34;;;;;;;149.90;72.10;;;;;;;0.34;100.00;99377.73;106679;1298;22117;-58
2022/12/17 21:06:04;;;;;;;32.10;14.50;;;;;;;0.36;100.00;99379.71;106630;1296;139697;-59
2022/12/17 21:08:31;;;;;;;15.60;9.40;;;;;;;0.38;100.00;99385.05;106751;1303;22278;-59
2022/12/17 21:10:58;;;;;;;11.50;7.30;;;;;;;0.40;100.00;99384.04;106603;1303;140121;-59
2022/12/17 21:13:27;;;;;;;6.70;3.70;;;;;;;0.40;100.00;99388.58;106706;1288;22125;-58
2022/12/17 21:15:56;;;;;;;9.20;5.60;;;;;;;0.35;100.00;99397.85;106726;1303;22174;-59
2022/12/17 21:18:22;;;;;;;6.70;4.40;;;;;;;0.32;100.00;99402.73;106646;1288;137612;-60
2022/12/17 21:21:09;;;;;;;5.00;3.70;;;;;;;0.27;100.00;99412.63;106704;1291;22860;-60
2022/12/17 21:23:37;;;;;;;4.70;3.90;;;;;;;0.23;100.00;99418.01;106639;1295;138364;-59
2022/12/17 21:26:15;;;;;;;5.30;4.30;;;;;;;0.20;100.00;99421.73;106765;1288;22177;-59
2022/12/17 21:28:44;;;;;;;5.10;4.30;;;;;;;0.19;100.00;99420.31;106576;1306;139507;-59
2022/12/17 21:31:15;;;;;;;8.00;5.00;;;;;;;0.18;100.00;99422.66;106686;1298;22155;-59
2022/12/17 21:33:41;;;;;;;7.90;5.30;;;;;;;0.17;100.00;99427.71;106725;1282;22549;-59
2022/12/17 21:36:09;;;;;;;9.00;5.70;;;;;;;0.15;100.00;99433.46;106655;1285;138829;-59
2022/12/17 21:38:35;;;;;;;;;;;;;;;0.14;100.00;99437.06;106746;1304;22442;-59
2022/12/17 21:41:04;;;;;;;8.50;5.10;;;;;;;0.13;100.00;99445.41;103047;1297;124861;-59
2022/12/17 21:43:31;;;;;;;6.80;4.20;;;;;;;0.08;100.00;99450.10;106516;1305;22319;-59
2022/12/17 21:45:58;;;;;;;6.90;4.80;;;;;;;0.01;100.00;99460.74;106583;1301;22108;-59
2022/12/17 21:48:25;;;;;;;7.10;4.70;;;;;;;-0.05;100.00;99467.98;106557;1305;139147;-59
2022/12/17 21:50:52;;;;;;;7.90;5.20;;;;;;;-0.08;100.00;99471.50;106717;1291;23130;-59
2022/12/17 21:53:19;;;;;;;8.60;5.40;;;;;;;-0.07;100.00;99477.89;106569;1292;139463;-59
2022/12/17 21:55:46;;;;;;;;;;;;;;;-0.08;100.00;99479.44;106544;1305;22380;-64
2022/12/17 21:58:14;;;;;;;8.60;5.20;;;;;;;-0.10;100.00;99485.92;106538;1297;22233;-59
2022/12/17 22:00:41;;;;;;;6.80;5.20;;;;;;;-0.10;100.00;99487.90;106574;1301;139497;-59
2022/12/17 22:03:08;;;;;;;10.70;6.70;;;;;;;-0.08;100.00;99494.86;106707;1303;22245;-59
2022/12/17 22:05:35;;;;;;;;;;;;;;;-0.06;100.00;99495.91;106636;1308;139372;-59
2022/12/17 22:08:03;;;;;;;9.00;6.60;;;;;;;-0.04;100.00;99501.02;106721;1309;22820;-59
2022/12/17 22:10:30;;;;;;;7.90;5.50;;;;;;;-0.03;100.00;99511.07;106667;1306;22148;-59
2022/12/17 22:15:54;;;;;;;10.30;7.20;;;;;;;-0.03;100.00;99530.19;106469;1306;22095;-59
2022/12/17 22:18:21;;;;;;;10.40;7.30;;;;;;;-0.04;100.00;99540.27;106441;1301;138119;-60
2022/12/17 22:20:58;;;;;;;11.90;7.10;;;;;;;-0.08;100.00;99538.66;106556;1303;22125;-59
2022/12/17 22:23:24;;;;;;;10.20;7.50;;;;;;;-0.05;100.00;99554.88;106557;1304;139140;-60
2022/12/17 22:25:51;;;;;;;12.20;7.50;;;;;;;-0.08;100.00;99557.80;106618;1309;22140;-58
2022/12/17 22:28:19;;;;;;;10.80;7.40;;;;;;;-0.13;100.00;99559.07;106772;1308;22128;-58
2022/12/17 22:33:32;;;;;;;14.80;8.20;;;;;;;-0.20;100.00;99567.84;106686;1309;22150;-59
2022/12/17 22:36:19;;;;;;;15.00;8.00;;;;;;;-0.24;100.00;99576.89;106617;1305;138698;-59
2022/12/17 22:39:08;;;;;;;11.80;7.90;;;;;;;-0.30;100.00;99578.20;106747;1306;22133;-58
2022/12/17 22:45:00;;;;;;;11.20;6.70;;;;;;;-0.40;99.98;99584.48;106753;1306;22264;-59
2022/12/17 22:47:35;;;;;;;12.60;9.10;;;;;;;-0.46;99.92;99581.31;106580;1303;138384;-57
2022/12/17 22:50:01;;;;;;;13.30;8.10;;;;;;;-0.51;99.88;99580.95;106706;1306;22188;-58
2022/12/17 22:52:29;;;;;;;16.20;10.50;;;;;;;-0.55;99.78;99592.55;106694;1307;22259;-58
2022/12/17 22:54:56;;;;;;;34.20;20.10;;;;;;;-0.58;99.88;99598.29;106512;1303;137904;-58
2022/12/17 22:57:23;;;;;;;;;;;;;;;-0.60;99.85;99604.10;106683;1303;22334;-58
2022/12/17 23:00:15;;;;;;;13.70;8.50;;;;;;;-0.64;99.75;99604.61;106615;1305;124632;-58
2022/12/17 23:02:41;;;;;;;13.20;8.40;;;;;;;-0.68;99.80;99612.93;106653;1306;22254;-58
2022/12/17 23:05:08;;;;;;;;;;;;;;;-0.69;99.66;99616.66;106536;1305;139832;-58
2022/12/17 23:07:35;;;;;;;16.00;8.80;;;;;;;-0.70;99.54;99623.15;106706;1306;23043;-57
2022/12/17 23:10:03;;;;;;;16.60;9.60;;;;;;;-0.72;99.57;99629.63;106701;1303;23643;-58
2022/12/17 23:15:18;;;;;;;15.60;10.20;;;;;;;-0.79;99.46;99640.35;106701;1303;22204;-58
2022/12/17 23:17:45;;;;;;;16.20;10.80;;;;;;;-0.83;99.53;99639.36;106599;1303;137940;-59
2022/12/17 23:20:11;;;;;;;18.10;10.70;;;;;;;-0.85;99.64;99640.61;106744;1303;22269;-59
2022/12/17 23:22:38;;;;;;;;;;;;;;;-0.84;99.58;99645.40;106757;1306;22424;-59
2022/12/17 23:25:05;;;;;;;16.60;10.60;;;;;;;-0.88;99.26;99644.58;106660;1295;124455;-58
2022/12/17 23:27:32;;;;;;;16.70;9.40;;;;;;;-0.92;99.24;99649.66;106740;1306;22175;-58
2022/12/17 23:29:59;;;;;;;15.60;9.60;;;;;;;-0.95;99.09;99652.73;106574;1303;139812;-59
2022/12/17 23:32:26;;;;;;;;;;;;;;;-0.96;99.33;99658.05;106751;1298;23229;-61
2022/12/17 23:34:52;;;;;;;15.40;9.30;;;;;;;-0.98;99.29;99657.52;106550;1303;125308;-59
2022/12/17 23:37:19;;;;;;;18.20;10.40;;;;;;;-1.01;99.11;99661.11;106520;1305;23083;-58
2022/12/17 23:39:46;;;;;;;16.90;9.90;;;;;;;-1.03;99.00;99663.71;105399;1291;24023;-59
2022/12/17 23:42:12;;;;;;;20.70;12.90;;;;;;;-1.05;98.83;99676.59;102181;1301;137966;-58
2022/12/17 23:44:39;;;;;;;16.10;10.60;;;;;;;-1.06;98.85;99677.69;102272;1289;25384;-57
2022/12/17 23:47:06;;;;;;;16.60;10.40;;;;;;;-1.06;98.93;99680.40;102220;1305;138592;-58
2022/12/17 23:49:33;;;;;;;;;;;;;;;-1.10;98.89;99687.85;102340;1296;25255;-59
2022/12/17 23:51:59;;;;;;;20.80;10.90;;;;;;;-1.06;98.96;99700.23;102311;1295;22624;-59
2022/12/17 23:54:26;;;;;;;20.20;12.20;;;;;;;-1.09;98.78;99706.02;102160;1310;137576;-58
2022/12/17 23:56:53;;;;;;;18.90;11.30;;;;;;;-1.12;98.55;99706.21;102301;1296;22491;-58
2022/12/17 23:59:19;;;;;;;63.80;34.60;;;;;;;-1.13;98.77;99713.16;102175;1294;138025;-59
